Decoded Metar for LFMC (LE LUC in FRANCE) (IATA:N/A) | Meteo·Mobile Aviation Weather
aviador You're here:

LFMC Decoded Metar

LE LUC in FRANCE
Report Time2018-08-22 06:30:00
UTC Time2018-08-22 07:00:00
Flight Rules vfr VFR
WindCalm
Visibility9999 m
Phenomena:N/A
Clouds:N/A
Expected CloudBase > 1,200 ft AGL from Temp-Dew spread
CeilingNone
Temp21°C (ISA +7)
Dew Point18°C (83% RH)
QNH1016 hPa
Density Alt1,188 ft
Elevation256 ft
Report Wrong Elevation
Raw Report
METAR LFMC 220630Z AUTO 00000KT 9999 ////// 21/18 Q1016=

Extra information for LFMC:More info

Metar Taf Metar & Taf Last 4 Metars F.Rules Stats Wind Profile Meteogram Temp Stats Airport Information Weather charts Add Link Nearby VenuesMetar ALERT Operation Metar Decoded Social comments